createdAt,value
2023-03-18T00:00:26.490Z,0.00
2023-03-18T00:01:26.487Z,0.00
2023-03-18T00:02:26.499Z,0.00
2023-03-18T00:03:26.605Z,0.00
2023-03-18T00:04:26.454Z,0.00
2023-03-18T00:05:26.495Z,0.00
2023-03-18T00:06:26.439Z,0.00
2023-03-18T00:07:26.459Z,0.00
2023-03-18T00:08:26.508Z,0.00
2023-03-18T00:09:26.483Z,0.00
2023-03-18T00:10:26.454Z,0.00
2023-03-18T00:11:26.496Z,0.00
2023-03-18T00:12:26.612Z,0.00
2023-03-18T00:13:26.498Z,0.00
2023-03-18T00:14:26.492Z,0.00
2023-03-18T00:15:26.525Z,0.00
2023-03-18T00:16:26.637Z,0.00
2023-03-18T00:17:26.600Z,0.00
2023-03-18T00:18:26.343Z,0.00
2023-03-18T00:19:26.608Z,0.00
2023-03-18T00:20:26.294Z,0.00
2023-03-18T00:21:26.249Z,0.00
2023-03-18T00:22:26.251Z,0.00
2023-03-18T00:23:26.238Z,0.00
2023-03-18T00:24:26.254Z,0.00
2023-03-18T00:25:26.225Z,0.00
2023-03-18T00:26:26.207Z,0.00
2023-03-18T00:27:26.214Z,0.00
2023-03-18T00:28:26.187Z,0.00
2023-03-18T00:29:26.203Z,0.00
2023-03-18T00:30:26.159Z,0.00
2023-03-18T00:31:26.211Z,0.00
2023-03-18T00:32:26.607Z,0.00
2023-03-18T00:33:26.120Z,0.00
2023-03-18T00:34:26.154Z,0.00
2023-03-18T00:35:26.112Z,0.00
2023-03-18T00:36:26.084Z,0.00
2023-03-18T00:37:26.080Z,0.00
2023-03-18T00:38:26.246Z,0.00
2023-03-18T00:39:26.054Z,0.00
2023-03-18T00:40:26.067Z,0.00
2023-03-18T00:41:26.050Z,0.00
2023-03-18T00:42:26.019Z,0.00
2023-03-18T00:43:26.028Z,0.00
2023-03-18T00:44:25.996Z,0.00
2023-03-18T00:45:25.999Z,0.00
2023-03-18T00:46:26.114Z,0.00
2023-03-18T00:47:25.999Z,0.00
2023-03-18T00:48:25.952Z,0.00
2023-03-18T00:49:25.959Z,0.00
2023-03-18T00:50:25.927Z,0.00
2023-03-18T00:51:25.946Z,0.00
2023-03-18T00:52:25.938Z,0.00
2023-03-18T00:53:25.907Z,0.00
2023-03-18T00:54:25.887Z,0.00
2023-03-18T00:55:25.892Z,0.00
2023-03-18T00:56:25.880Z,0.00
2023-03-18T00:57:25.871Z,0.00
2023-03-18T00:58:25.877Z,0.00
2023-03-18T00:59:25.871Z,0.00
2023-03-18T01:00:25.821Z,0.00
2023-03-18T01:01:25.960Z,0.00
2023-03-18T01:02:25.903Z,0.00
2023-03-18T01:03:25.826Z,0.00
2023-03-18T01:04:25.804Z,0.00
2023-03-18T01:05:25.776Z,0.00
2023-03-18T01:06:25.793Z,0.00
2023-03-18T01:07:25.750Z,0.00
2023-03-18T01:08:25.728Z,0.00
2023-03-18T01:09:25.741Z,0.00
2023-03-18T01:10:25.717Z,0.00
2023-03-18T01:11:25.712Z,0.00
2023-03-18T01:12:25.752Z,0.00
2023-03-18T01:13:25.691Z,0.00
2023-03-18T01:14:25.662Z,0.00
2023-03-18T01:15:25.689Z,0.00
2023-03-18T01:16:25.716Z,0.00
2023-03-18T01:17:25.666Z,0.00
2023-03-18T01:18:25.636Z,0.00
2023-03-18T01:19:25.621Z,0.00
2023-03-18T01:20:25.683Z,0.00
2023-03-18T01:21:25.599Z,0.00
2023-03-18T01:22:25.580Z,0.00
2023-03-18T01:23:25.625Z,0.00
2023-03-18T01:24:25.554Z,0.00
2023-03-18T01:25:25.553Z,0.00
2023-03-18T01:26:25.674Z,0.00
2023-03-18T01:27:25.527Z,0.00
2023-03-18T01:28:25.514Z,0.00
2023-03-18T01:29:25.561Z,0.00
2023-03-18T01:30:25.511Z,0.00
2023-03-18T01:31:25.605Z,0.00
2023-03-18T01:32:25.466Z,0.00
2023-03-18T01:33:25.455Z,0.00
2023-03-18T01:34:25.454Z,0.00
2023-03-18T01:35:25.446Z,0.00
2023-03-18T01:36:25.431Z,0.00
2023-03-18T01:37:30.876Z,0.00
2023-03-18T01:38:25.626Z,0.00
2023-03-18T01:39:25.430Z,0.00
2023-03-18T01:40:25.396Z,0.00
2023-03-18T01:41:25.351Z,0.00
2023-03-18T01:42:25.368Z,0.00
2023-03-18T01:43:25.339Z,0.00
2023-03-18T01:44:25.331Z,0.00
2023-03-18T01:45:25.348Z,0.00
2023-03-18T01:46:25.349Z,0.00
2023-03-18T01:47:25.294Z,0.00
2023-03-18T01:48:25.296Z,0.00
2023-03-18T01:49:25.266Z,0.00
2023-03-18T01:50:25.277Z,0.00
2023-03-18T01:51:25.274Z,0.00
2023-03-18T01:52:25.274Z,0.00
2023-03-18T01:53:25.233Z,0.00
2023-03-18T01:54:25.229Z,0.00
2023-03-18T01:55:25.206Z,0.00
2023-03-18T01:56:25.209Z,0.00
2023-03-18T01:57:25.197Z,0.00
2023-03-18T01:58:25.188Z,0.00
2023-03-18T01:59:25.153Z,0.00
2023-03-18T02:00:25.160Z,0.00
2023-03-18T02:01:25.253Z,0.00
2023-03-18T02:02:25.134Z,0.00
2023-03-18T02:03:25.129Z,0.00
2023-03-18T02:04:25.110Z,0.00
2023-03-18T02:05:30.348Z,0.00
2023-03-18T02:06:25.135Z,0.00
2023-03-18T02:07:25.103Z,0.00
2023-03-18T02:08:25.062Z,0.00
2023-03-18T02:09:25.057Z,0.00
2023-03-18T02:10:25.045Z,0.00
2023-03-18T02:11:30.278Z,0.00
2023-03-18T02:12:25.024Z,0.00
2023-03-18T02:13:25.022Z,0.00
2023-03-18T02:14:25.000Z,0.00
2023-03-18T02:15:24.985Z,0.00
2023-03-18T02:16:25.028Z,0.00
2023-03-18T02:17:24.969Z,0.00
2023-03-18T02:18:24.980Z,0.00
2023-03-18T02:19:24.945Z,0.00
2023-03-18T02:20:24.935Z,0.00
2023-03-18T02:21:24.985Z,0.00
2023-03-18T02:22:24.914Z,0.00
2023-03-18T02:23:24.889Z,0.00
2023-03-18T02:24:25.045Z,0.00
2023-03-18T02:25:24.864Z,0.00
2023-03-18T02:26:24.877Z,0.00
2023-03-18T02:27:24.876Z,0.00
2023-03-18T02:28:24.850Z,0.00
2023-03-18T02:29:24.829Z,0.00
2023-03-18T02:30:24.829Z,0.00
2023-03-18T02:31:24.969Z,0.00
2023-03-18T02:32:24.804Z,0.00
2023-03-18T02:33:24.816Z,0.00
2023-03-18T02:34:24.790Z,0.00
2023-03-18T02:35:24.806Z,0.00
2023-03-18T02:36:24.760Z,0.00
2023-03-18T02:37:24.777Z,0.00
2023-03-18T02:38:24.732Z,0.00
2023-03-18T02:39:24.717Z,0.00
2023-03-18T02:40:24.716Z,0.00
2023-03-18T02:41:24.720Z,0.00
2023-03-18T02:42:24.697Z,0.00
2023-03-18T02:43:24.705Z,0.00
2023-03-18T02:44:24.670Z,0.00
2023-03-18T02:45:24.667Z,0.00
2023-03-18T02:46:24.726Z,0.00
2023-03-18T02:47:24.643Z,0.00
2023-03-18T02:48:24.617Z,0.00
2023-03-18T02:49:24.601Z,0.00
2023-03-18T02:50:24.625Z,0.00
2023-03-18T02:51:24.579Z,0.00
2023-03-18T02:52:24.586Z,0.00
2023-03-18T02:53:24.569Z,0.00
2023-03-18T02:54:24.562Z,0.00
2023-03-18T02:55:24.541Z,0.00
2023-03-18T02:56:24.547Z,0.00
2023-03-18T02:57:24.534Z,0.00
2023-03-18T02:58:24.570Z,0.00
2023-03-18T02:59:24.496Z,0.00
2023-03-18T03:00:24.503Z,0.00
2023-03-18T03:01:24.523Z,0.00
2023-03-18T03:02:24.599Z,0.00
2023-03-18T03:03:24.498Z,0.00
2023-03-18T03:04:24.480Z,0.00
2023-03-18T03:05:24.422Z,0.00
2023-03-18T03:06:24.422Z,0.00
2023-03-18T03:07:24.508Z,0.00
2023-03-18T03:08:24.422Z,0.00
2023-03-18T03:09:24.371Z,0.00
2023-03-18T03:10:24.397Z,0.00
2023-03-18T03:11:24.360Z,0.00
2023-03-18T03:12:24.352Z,0.00
2023-03-18T03:13:24.341Z,0.00
2023-03-18T03:14:24.367Z,0.00
2023-03-18T03:15:24.344Z,0.00
2023-03-18T03:16:24.333Z,0.00
2023-03-18T03:17:24.312Z,0.00
2023-03-18T03:18:24.298Z,0.00
2023-03-18T03:19:24.273Z,0.00
2023-03-18T03:20:24.287Z,0.00
2023-03-18T03:21:24.270Z,0.00
2023-03-18T03:22:24.257Z,0.00
2023-03-18T03:23:24.221Z,0.00
2023-03-18T03:24:24.224Z,0.00
2023-03-18T03:25:24.196Z,0.00
2023-03-18T03:26:24.213Z,0.00
2023-03-18T03:27:24.417Z,0.00
2023-03-18T03:28:24.173Z,0.00
2023-03-18T03:29:24.160Z,0.00
2023-03-18T03:30:24.152Z,0.00
2023-03-18T03:31:24.260Z,0.00
2023-03-18T03:32:24.151Z,0.00
2023-03-18T03:33:24.118Z,0.00
2023-03-18T03:34:24.111Z,0.00
2023-03-18T03:35:24.093Z,0.00
2023-03-18T03:36:24.092Z,0.00
2023-03-18T03:37:24.074Z,0.00
2023-03-18T03:38:24.082Z,0.00
2023-03-18T03:39:24.073Z,0.00
2023-03-18T03:40:24.073Z,0.00
2023-03-18T03:41:24.143Z,0.00
2023-03-18T03:42:24.096Z,0.00
2023-03-18T03:43:24.094Z,0.00
2023-03-18T03:44:24.054Z,0.00
2023-03-18T03:45:24.150Z,0.00
2023-03-18T03:46:24.178Z,0.00
2023-03-18T03:47:24.105Z,0.00
2023-03-18T03:48:24.076Z,0.00
2023-03-18T03:49:24.087Z,0.00
2023-03-18T03:50:24.030Z,0.00
2023-03-18T03:51:24.153Z,0.00
2023-03-18T03:52:24.070Z,0.00
2023-03-18T03:53:23.997Z,0.00
2023-03-18T03:54:24.033Z,0.00
2023-03-18T03:55:23.890Z,0.00
2023-03-18T03:56:23.891Z,0.00
2023-03-18T03:57:24.131Z,0.00
2023-03-18T03:58:23.826Z,0.00
2023-03-18T03:59:23.825Z,0.00
2023-03-18T04:00:23.825Z,0.00
2023-03-18T04:01:23.815Z,0.00
2023-03-18T04:02:23.921Z,0.00
2023-03-18T04:03:23.815Z,0.00
2023-03-18T04:04:23.816Z,0.00
2023-03-18T04:05:23.775Z,0.00
2023-03-18T04:06:30.833Z,0.00
2023-03-18T04:07:23.751Z,0.00
2023-03-18T04:08:23.730Z,0.00
2023-03-18T04:09:23.752Z,0.00
2023-03-18T04:10:23.710Z,0.00
2023-03-18T04:11:23.717Z,0.00
2023-03-18T04:12:23.696Z,0.00
2023-03-18T04:13:23.666Z,0.00
2023-03-18T04:14:23.689Z,0.00
2023-03-18T04:15:23.659Z,0.00
2023-03-18T04:16:23.710Z,0.00
2023-03-18T04:17:23.622Z,0.00
2023-03-18T04:18:23.603Z,0.00
2023-03-18T04:19:23.601Z,0.00
2023-03-18T04:20:23.600Z,0.00
2023-03-18T04:21:23.595Z,0.00
2023-03-18T04:22:23.565Z,0.00
2023-03-18T04:23:23.560Z,0.00
2023-03-18T04:24:23.539Z,0.00
2023-03-18T04:25:23.573Z,0.00
2023-03-18T04:26:23.520Z,0.00
2023-03-18T04:27:23.539Z,0.00
2023-03-18T04:28:23.500Z,0.00
2023-03-18T04:29:23.500Z,0.00
2023-03-18T04:30:23.508Z,0.00
2023-03-18T04:31:23.552Z,0.00
2023-03-18T04:32:23.449Z,0.00
2023-03-18T04:33:23.449Z,0.00
2023-03-18T04:34:23.439Z,0.00
2023-03-18T04:35:23.460Z,0.00
2023-03-18T04:36:23.421Z,0.00
2023-03-18T04:37:23.402Z,0.00
2023-03-18T04:38:23.379Z,0.00
2023-03-18T04:39:23.378Z,0.00
2023-03-18T04:40:23.378Z,0.00
2023-03-18T04:41:23.382Z,0.00
2023-03-18T04:42:23.339Z,0.00
2023-03-18T04:43:23.343Z,0.00
2023-03-18T04:44:23.319Z,0.00
2023-03-18T04:45:23.322Z,0.00
2023-03-18T04:46:23.354Z,0.00
2023-03-18T04:47:23.314Z,0.00
2023-03-18T04:48:23.271Z,0.00
2023-03-18T04:49:23.269Z,0.00
2023-03-18T04:50:23.254Z,0.00
2023-03-18T04:51:23.246Z,0.00
2023-03-18T04:52:23.247Z,0.00
2023-03-18T04:53:23.217Z,0.00
2023-03-18T04:54:23.194Z,0.00
2023-03-18T04:55:23.210Z,0.00
2023-03-18T04:56:23.189Z,0.00
2023-03-18T04:57:23.191Z,0.00
2023-03-18T04:58:23.171Z,0.00
2023-03-18T04:59:23.158Z,0.00
2023-03-18T05:00:23.139Z,0.00
2023-03-18T05:01:23.195Z,0.00
2023-03-18T05:02:23.120Z,0.00
2023-03-18T05:03:23.138Z,0.00
2023-03-18T05:04:23.090Z,0.00
2023-03-18T05:05:23.088Z,0.00
2023-03-18T05:06:23.155Z,0.00
2023-03-18T05:07:23.060Z,0.00
2023-03-18T05:08:23.085Z,0.00
2023-03-18T05:09:23.072Z,0.00
2023-03-18T05:10:23.051Z,0.00
2023-03-18T05:11:23.012Z,0.00
2023-03-18T05:12:23.003Z,0.00
2023-03-18T05:13:22.999Z,0.00
2023-03-18T05:14:23.003Z,0.00
2023-03-18T05:15:23.021Z,0.00
2023-03-18T05:16:22.996Z,4.00
2023-03-18T05:17:22.971Z,4.00
2023-03-18T05:18:22.936Z,0.00
2023-03-18T05:19:22.934Z,4.00
2023-03-18T05:20:22.910Z,4.00
2023-03-18T05:21:22.939Z,4.00
2023-03-18T05:22:22.899Z,4.00
2023-03-18T05:23:22.883Z,8.00
2023-03-18T05:24:22.872Z,8.00
2023-03-18T05:25:22.880Z,8.00
2023-03-18T05:26:22.840Z,12.00
2023-03-18T05:27:22.901Z,12.00
2023-03-18T05:28:22.848Z,16.00
2023-03-18T05:29:22.820Z,16.00
2023-03-18T05:30:22.808Z,16.00
2023-03-18T05:31:22.820Z,20.00
2023-03-18T05:32:22.801Z,20.00
2023-03-18T05:33:23.351Z,20.00
2023-03-18T05:34:22.753Z,20.00
2023-03-18T05:35:22.760Z,20.00
2023-03-18T05:36:22.736Z,24.00
2023-03-18T05:37:22.744Z,20.00
2023-03-18T05:38:22.708Z,20.00
2023-03-18T05:39:22.712Z,20.00
2023-03-18T05:40:22.680Z,24.00
2023-03-18T05:41:22.680Z,20.00
2023-03-18T05:42:22.670Z,24.00
2023-03-18T05:43:22.660Z,28.00
2023-03-18T05:44:22.639Z,24.00
2023-03-18T05:45:22.629Z,28.00
2023-03-18T05:46:22.632Z,28.00
2023-03-18T05:47:22.619Z,32.00
2023-03-18T05:48:22.630Z,32.00
2023-03-18T05:49:22.769Z,32.00
2023-03-18T05:50:22.572Z,36.00
2023-03-18T05:51:22.560Z,36.00
2023-03-18T05:52:22.718Z,36.00
2023-03-18T05:53:22.571Z,44.00
2023-03-18T05:54:22.536Z,48.00
2023-03-18T05:55:22.551Z,56.00
2023-03-18T05:56:22.512Z,64.00
2023-03-18T05:57:22.677Z,72.00
2023-03-18T05:58:22.556Z,80.00
2023-03-18T05:59:22.564Z,88.00
2023-03-18T06:00:22.844Z,92.00
2023-03-18T06:01:22.605Z,104.00
2023-03-18T06:02:22.596Z,104.00
2023-03-18T06:03:22.612Z,116.00
2023-03-18T06:04:22.577Z,132.00
2023-03-18T06:05:22.629Z,144.00
2023-03-18T06:06:22.649Z,144.00
2023-03-18T06:07:22.635Z,136.00
2023-03-18T06:08:22.626Z,132.00
2023-03-18T06:09:22.658Z,136.00
2023-03-18T06:10:22.437Z,128.00
2023-03-18T06:11:22.667Z,120.00
2023-03-18T06:12:22.338Z,120.00
2023-03-18T06:13:22.339Z,120.00
2023-03-18T06:14:22.327Z,128.00
2023-03-18T06:15:22.303Z,128.00
2023-03-18T06:16:22.540Z,128.00
2023-03-18T06:17:22.288Z,136.00
2023-03-18T06:18:22.269Z,148.00
2023-03-18T06:19:22.257Z,156.00
2023-03-18T06:20:22.306Z,176.00
2023-03-18T06:21:22.421Z,196.00
2023-03-18T06:22:22.224Z,212.00
2023-03-18T06:23:22.215Z,224.00
2023-03-18T06:24:22.199Z,240.00
2023-03-18T06:25:22.225Z,260.00
2023-03-18T06:26:22.176Z,300.00
2023-03-18T06:27:22.190Z,356.00
2023-03-18T06:28:22.153Z,400.00
2023-03-18T06:29:22.160Z,408.00
2023-03-18T06:30:22.158Z,404.00
2023-03-18T06:31:22.153Z,408.00
2023-03-18T06:32:22.116Z,420.00
2023-03-18T06:33:22.098Z,432.00
2023-03-18T06:34:22.075Z,440.00
2023-03-18T06:35:22.080Z,448.00
2023-03-18T06:36:22.114Z,452.00
2023-03-18T06:37:22.069Z,448.00
2023-03-18T06:38:22.038Z,440.00
2023-03-18T06:39:22.044Z,436.00
2023-03-18T06:40:22.016Z,412.00
2023-03-18T06:41:22.031Z,408.00
2023-03-18T06:42:22.011Z,404.00
2023-03-18T06:43:21.994Z,392.00
2023-03-18T06:44:21.977Z,376.00
2023-03-18T06:45:22.012Z,384.00
2023-03-18T06:46:22.257Z,368.00
2023-03-18T06:47:21.976Z,364.00
2023-03-18T06:48:21.941Z,356.00
2023-03-18T06:49:21.921Z,332.00
2023-03-18T06:50:21.919Z,336.00
2023-03-18T06:51:21.923Z,344.00
2023-03-18T06:52:21.877Z,360.00
2023-03-18T06:53:21.894Z,376.00
2023-03-18T06:54:21.862Z,392.00
2023-03-18T06:55:21.876Z,400.00
2023-03-18T06:56:21.869Z,424.00
2023-03-18T06:57:21.837Z,444.00
2023-03-18T06:58:21.829Z,496.00
2023-03-18T06:59:21.810Z,540.00
2023-03-18T07:00:21.834Z,556.00
2023-03-18T07:01:21.816Z,580.00
2023-03-18T07:02:21.790Z,620.00
2023-03-18T07:03:21.780Z,648.00
2023-03-18T07:04:21.785Z,676.00
2023-03-18T07:05:21.748Z,676.00
2023-03-18T07:06:21.730Z,668.00
2023-03-18T07:07:21.755Z,668.00
2023-03-18T07:08:21.705Z,640.00
2023-03-18T07:09:21.700Z,656.00
2023-03-18T07:10:21.716Z,684.00
2023-03-18T07:11:21.698Z,732.00
2023-03-18T07:12:21.660Z,780.00
2023-03-18T07:13:21.692Z,792.00
2023-03-18T07:14:21.648Z,780.00
2023-03-18T07:15:21.634Z,788.00
2023-03-18T07:16:21.637Z,768.00
2023-03-18T07:17:21.611Z,712.00
2023-03-18T07:18:21.589Z,728.00
2023-03-18T07:19:21.629Z,768.00
2023-03-18T07:20:21.568Z,784.00
2023-03-18T07:21:21.568Z,772.00
2023-03-18T07:22:21.547Z,768.00
2023-03-18T07:23:21.561Z,784.00
2023-03-18T07:24:21.521Z,800.00
2023-03-18T07:25:22.904Z,820.00
2023-03-18T07:26:21.509Z,832.00
2023-03-18T07:27:21.499Z,848.00
2023-03-18T07:28:21.488Z,824.00
2023-03-18T07:29:21.509Z,820.00
2023-03-18T07:30:21.493Z,824.00
2023-03-18T07:31:28.606Z,828.00
2023-03-18T07:32:21.432Z,836.00
2023-03-18T07:33:21.435Z,784.00
2023-03-18T07:34:24.109Z,780.00
2023-03-18T07:35:21.400Z,800.00
2023-03-18T07:36:21.403Z,820.00
2023-03-18T07:37:21.385Z,912.00
2023-03-18T07:38:21.377Z,924.00
2023-03-18T07:39:21.400Z,888.00
2023-03-18T07:40:21.345Z,884.00
2023-03-18T07:41:21.343Z,856.00
2023-03-18T07:42:21.320Z,856.00
2023-03-18T07:43:21.334Z,876.00
2023-03-18T07:44:21.312Z,880.00
2023-03-18T07:45:21.325Z,868.00
2023-03-18T07:46:21.326Z,868.00
2023-03-18T07:47:21.281Z,876.00
2023-03-18T07:48:21.253Z,856.00
2023-03-18T07:49:21.250Z,840.00
2023-03-18T07:50:21.271Z,864.00
2023-03-18T07:51:21.231Z,900.00
2023-03-18T07:52:21.230Z,896.00
2023-03-18T07:53:21.197Z,900.00
2023-03-18T07:54:21.220Z,892.00
2023-03-18T07:55:21.210Z,900.00
2023-03-18T07:56:21.196Z,900.00
2023-03-18T07:57:21.214Z,912.00
2023-03-18T07:58:21.141Z,924.00
2023-03-18T07:59:21.151Z,916.00
2023-03-18T08:00:21.141Z,880.00
2023-03-18T08:01:21.131Z,888.00
2023-03-18T08:02:21.115Z,904.00
2023-03-18T08:03:21.111Z,900.00
2023-03-18T08:04:21.237Z,904.00
2023-03-18T08:05:21.074Z,932.00
2023-03-18T08:06:21.296Z,896.00
2023-03-18T08:07:21.074Z,788.00
2023-03-18T08:08:21.058Z,716.00
2023-03-18T08:09:21.025Z,648.00
2023-03-18T08:10:21.028Z,640.00
2023-03-18T08:11:21.014Z,652.00
2023-03-18T08:12:20.999Z,612.00
2023-03-18T08:13:20.974Z,608.00
2023-03-18T08:14:20.977Z,556.00
2023-03-18T08:15:20.953Z,536.00
2023-03-18T08:16:20.980Z,540.00
2023-03-18T08:17:20.949Z,512.00
2023-03-18T08:18:20.926Z,480.00
2023-03-18T08:19:20.916Z,432.00
2023-03-18T08:20:20.902Z,404.00
2023-03-18T08:21:20.881Z,400.00
2023-03-18T08:22:20.887Z,392.00
2023-03-18T08:23:20.874Z,424.00
2023-03-18T08:24:20.860Z,472.00
2023-03-18T08:25:20.853Z,488.00
2023-03-18T08:26:20.835Z,504.00
2023-03-18T08:27:20.814Z,536.00
2023-03-18T08:28:20.842Z,596.00
2023-03-18T08:29:20.806Z,652.00
2023-03-18T08:30:20.824Z,704.00
2023-03-18T08:31:20.768Z,764.00
2023-03-18T08:32:20.770Z,800.00
2023-03-18T08:33:20.758Z,788.00
2023-03-18T08:34:20.843Z,800.00
2023-03-18T08:35:21.428Z,840.00
2023-03-18T08:36:20.735Z,920.00
2023-03-18T08:37:20.706Z,952.00
2023-03-18T08:38:20.703Z,1056.00
2023-03-18T08:39:20.711Z,1040.00
2023-03-18T08:40:20.697Z,1008.00
2023-03-18T08:41:20.674Z,1008.00
2023-03-18T08:42:20.679Z,1000.00
2023-03-18T08:43:20.642Z,1072.00
2023-03-18T08:44:20.648Z,1092.00
2023-03-18T08:45:20.655Z,1080.00
2023-03-18T08:46:20.658Z,1092.00
2023-03-18T08:47:20.607Z,1144.00
2023-03-18T08:48:20.617Z,1148.00
2023-03-18T08:49:20.596Z,1128.00
2023-03-18T08:50:20.609Z,1100.00
2023-03-18T08:51:20.561Z,1100.00
2023-03-18T08:52:20.549Z,1100.00
2023-03-18T08:53:20.538Z,1020.00
2023-03-18T08:54:20.541Z,1032.00
2023-03-18T08:55:20.570Z,1164.00
2023-03-18T08:56:20.544Z,1384.00
2023-03-18T08:57:20.533Z,1524.00
2023-03-18T08:58:20.484Z,1476.00
2023-03-18T08:59:20.489Z,1420.00
2023-03-18T09:00:20.483Z,1448.00
2023-03-18T09:01:20.537Z,1388.00
2023-03-18T09:02:20.467Z,1392.00
2023-03-18T09:03:20.432Z,1436.00
2023-03-18T09:04:20.423Z,1500.00
2023-03-18T09:05:20.414Z,1536.00
2023-03-18T09:06:20.411Z,1592.00
2023-03-18T09:07:20.383Z,1640.00
2023-03-18T09:08:20.390Z,1712.00
2023-03-18T09:09:21.541Z,1624.00
2023-03-18T09:10:20.388Z,1844.00
2023-03-18T09:11:20.535Z,1756.00
2023-03-18T09:12:20.356Z,1732.00
2023-03-18T09:13:20.324Z,1600.00
2023-03-18T09:14:20.339Z,1520.00
2023-03-18T09:15:20.313Z,1376.00
2023-03-18T09:16:20.338Z,1264.00
2023-03-18T09:17:20.262Z,1160.00
2023-03-18T09:18:20.284Z,1064.00
2023-03-18T09:19:20.254Z,1036.00
2023-03-18T09:20:20.244Z,1028.00
2023-03-18T09:21:20.297Z,984.00
2023-03-18T09:22:20.230Z,888.00
2023-03-18T09:23:20.194Z,956.00
2023-03-18T09:24:20.201Z,1024.00
2023-03-18T09:25:20.202Z,1140.00
2023-03-18T09:26:20.191Z,1224.00
2023-03-18T09:27:20.194Z,1168.00
2023-03-18T09:28:20.144Z,1152.00
2023-03-18T09:29:20.140Z,1228.00
2023-03-18T09:30:20.163Z,1256.00
2023-03-18T09:31:20.227Z,1168.00
2023-03-18T09:32:20.155Z,1124.00
2023-03-18T09:33:20.082Z,1352.00
2023-03-18T09:34:20.125Z,1556.00
2023-03-18T09:35:20.122Z,1552.00
2023-03-18T09:36:20.838Z,1384.00
2023-03-18T09:37:20.115Z,1244.00
2023-03-18T09:38:20.064Z,1232.00
2023-03-18T09:39:20.021Z,1232.00
2023-03-18T09:40:20.011Z,1232.00
2023-03-18T09:41:20.017Z,1288.00
2023-03-18T09:42:19.993Z,1184.00
2023-03-18T09:43:19.998Z,1112.00
2023-03-18T09:44:19.975Z,1072.00
2023-03-18T09:45:19.942Z,1124.00
2023-03-18T09:46:20.118Z,1276.00
2023-03-18T09:47:20.001Z,1184.00
2023-03-18T09:48:19.932Z,1100.00
2023-03-18T09:49:19.944Z,1092.00
2023-03-18T09:50:19.903Z,1180.00
2023-03-18T09:51:19.882Z,1164.00
2023-03-18T09:52:19.891Z,1004.00
2023-03-18T09:53:19.863Z,836.00
2023-03-18T09:54:19.875Z,796.00
2023-03-18T09:55:19.843Z,784.00
2023-03-18T09:56:19.831Z,796.00
2023-03-18T09:57:19.824Z,772.00
2023-03-18T09:58:19.818Z,876.00
2023-03-18T09:59:19.807Z,1132.00
2023-03-18T10:00:19.795Z,1444.00
2023-03-18T10:01:19.802Z,1576.00
2023-03-18T10:02:19.792Z,1552.00
2023-03-18T10:03:19.760Z,1604.00
2023-03-18T10:04:19.792Z,1596.00
2023-03-18T10:05:19.724Z,1620.00
2023-03-18T10:06:19.802Z,1680.00
2023-03-18T10:07:19.717Z,1640.00
2023-03-18T10:08:19.705Z,1508.00
2023-03-18T10:09:19.693Z,1352.00
2023-03-18T10:10:19.685Z,1304.00
2023-03-18T10:11:19.681Z,1280.00
2023-03-18T10:12:19.678Z,1256.00
2023-03-18T10:13:19.666Z,1264.00
2023-03-18T10:14:19.641Z,1276.00
2023-03-18T10:15:19.617Z,1312.00
2023-03-18T10:16:19.752Z,1376.00
2023-03-18T10:17:19.614Z,1504.00
2023-03-18T10:18:19.605Z,1536.00
2023-03-18T10:19:19.576Z,1536.00
2023-03-18T10:20:19.566Z,1416.00
2023-03-18T10:21:19.567Z,1396.00
2023-03-18T10:22:19.556Z,1504.00
2023-03-18T10:23:19.595Z,1464.00
2023-03-18T10:24:19.538Z,1456.00
2023-03-18T10:25:21.201Z,1368.00
2023-03-18T10:26:19.519Z,1260.00
2023-03-18T10:27:19.491Z,1184.00
2023-03-18T10:28:19.485Z,1256.00
2023-03-18T10:29:19.469Z,1396.00
2023-03-18T10:30:19.460Z,2400.00
2023-03-18T10:31:19.555Z,2456.00
2023-03-18T10:32:19.440Z,2184.00
2023-03-18T10:33:19.443Z,2572.00
2023-03-18T10:34:19.440Z,2348.00
2023-03-18T10:35:19.401Z,1912.00
2023-03-18T10:36:19.457Z,2056.00
2023-03-18T10:37:19.410Z,1816.00
2023-03-18T10:38:19.374Z,1900.00
2023-03-18T10:39:19.363Z,1984.00
2023-03-18T10:40:19.350Z,2180.00
2023-03-18T10:41:19.323Z,2156.00
2023-03-18T10:42:19.358Z,2016.00
2023-03-18T10:43:19.316Z,2528.00
2023-03-18T10:44:19.314Z,2076.00
2023-03-18T10:45:19.298Z,2416.00
2023-03-18T10:46:19.329Z,2104.00
2023-03-18T10:47:19.398Z,1860.00
2023-03-18T10:48:19.289Z,1592.00
2023-03-18T10:49:19.246Z,1956.00
2023-03-18T10:50:19.235Z,1900.00
2023-03-18T10:51:19.215Z,1996.00
2023-03-18T10:52:19.230Z,1720.00
2023-03-18T10:53:19.192Z,1816.00
2023-03-18T10:54:19.284Z,2308.00
2023-03-18T10:55:19.175Z,2108.00
2023-03-18T10:56:19.179Z,2152.00
2023-03-18T10:57:19.161Z,1796.00
2023-03-18T10:58:19.164Z,1924.00
2023-03-18T10:59:19.128Z,2148.00
2023-03-18T11:00:19.140Z,1912.00
2023-03-18T11:01:21.176Z,1716.00
2023-03-18T11:02:19.208Z,2400.00
2023-03-18T11:03:19.089Z,1880.00
2023-03-18T11:04:19.108Z,2332.00
2023-03-18T11:05:19.119Z,2352.00
2023-03-18T11:06:19.075Z,1776.00
2023-03-18T11:07:19.038Z,1768.00
2023-03-18T11:08:19.089Z,2588.00
2023-03-18T11:09:19.013Z,2128.00
2023-03-18T11:10:19.038Z,1924.00
2023-03-18T11:11:18.996Z,1932.00
2023-03-18T11:12:19.502Z,1916.00
2023-03-18T11:13:18.988Z,1796.00
2023-03-18T11:14:19.384Z,1560.00
2023-03-18T11:15:18.951Z,1612.00
2023-03-18T11:16:18.968Z,1804.00
2023-03-18T11:17:18.929Z,1804.00
2023-03-18T11:18:19.836Z,2660.00
2023-03-18T11:19:18.943Z,2100.00
2023-03-18T11:20:18.938Z,1884.00
2023-03-18T11:21:18.878Z,1896.00
2023-03-18T11:22:18.881Z,1916.00
2023-03-18T11:23:18.869Z,2028.00
2023-03-18T11:24:18.861Z,1836.00
2023-03-18T11:25:18.844Z,1436.00
2023-03-18T11:26:18.861Z,1412.00
2023-03-18T11:27:18.824Z,1928.00
2023-03-18T11:28:18.823Z,1916.00
2023-03-18T11:29:18.796Z,1420.00
2023-03-18T11:30:31.256Z,1468.00
2023-03-18T11:31:19.893Z,1540.00
2023-03-18T11:32:18.774Z,2072.00
2023-03-18T11:33:18.753Z,2196.00
2023-03-18T11:34:18.771Z,2076.00
2023-03-18T11:35:18.847Z,2104.00
2023-03-18T11:36:18.745Z,2140.00
2023-03-18T11:37:18.711Z,1472.00
2023-03-18T11:38:18.706Z,1868.00
2023-03-18T11:39:18.690Z,1944.00
2023-03-18T11:40:18.710Z,1320.00
2023-03-18T11:41:18.653Z,1256.00
2023-03-18T11:42:18.650Z,1672.00
2023-03-18T11:43:18.648Z,1860.00
2023-03-18T11:44:18.637Z,1576.00
2023-03-18T11:45:19.087Z,1192.00
2023-03-18T11:46:18.626Z,1196.00
2023-03-18T11:47:18.597Z,1736.00
2023-03-18T11:48:18.640Z,1768.00
2023-03-18T11:49:18.603Z,1740.00
2023-03-18T11:50:18.559Z,2188.00
2023-03-18T11:51:18.552Z,1816.00
2023-03-18T11:52:18.547Z,1776.00
2023-03-18T11:53:18.544Z,2228.00
2023-03-18T11:54:18.526Z,1452.00
2023-03-18T11:55:18.519Z,1388.00
2023-03-18T11:56:18.519Z,1460.00
2023-03-18T11:57:18.485Z,2696.00
2023-03-18T11:58:18.497Z,2100.00
2023-03-18T11:59:18.464Z,1540.00
2023-03-18T12:00:18.465Z,1548.00
2023-03-18T12:01:18.462Z,2172.00
2023-03-18T12:02:18.531Z,2744.00
2023-03-18T12:03:18.434Z,2544.00
2023-03-18T12:04:18.415Z,1864.00
2023-03-18T12:05:18.464Z,2100.00
2023-03-18T12:06:18.373Z,1476.00
2023-03-18T12:07:18.375Z,1540.00
2023-03-18T12:08:18.354Z,2292.00
2023-03-18T12:09:18.359Z,1612.00
2023-03-18T12:10:18.410Z,2520.00
2023-03-18T12:11:18.337Z,1424.00
2023-03-18T12:12:18.314Z,1264.00
2023-03-18T12:13:18.338Z,1220.00
2023-03-18T12:14:18.324Z,1168.00
2023-03-18T12:15:18.308Z,1168.00
2023-03-18T12:16:18.317Z,1164.00
2023-03-18T12:17:18.286Z,1140.00
2023-03-18T12:18:18.262Z,1064.00
2023-03-18T12:19:18.269Z,1084.00
2023-03-18T12:20:18.274Z,1196.00
2023-03-18T12:21:18.247Z,2080.00
2023-03-18T12:22:18.226Z,1624.00
2023-03-18T12:23:18.340Z,1684.00
2023-03-18T12:24:18.234Z,1672.00
2023-03-18T12:25:18.201Z,1716.00
2023-03-18T12:26:18.189Z,2616.00
2023-03-18T12:27:18.207Z,2436.00
2023-03-18T12:28:18.150Z,1844.00
2023-03-18T12:29:18.138Z,2140.00
2023-03-18T12:30:18.162Z,2704.00
2023-03-18T12:31:18.183Z,1824.00
2023-03-18T12:32:18.151Z,1980.00
2023-03-18T12:33:18.120Z,2960.00
2023-03-18T12:34:18.101Z,2800.00
2023-03-18T12:35:20.282Z,2700.00
2023-03-18T12:36:18.102Z,2504.00
2023-03-18T12:37:18.100Z,2772.00
2023-03-18T12:38:18.081Z,2108.00
2023-03-18T12:39:18.032Z,2664.00
2023-03-18T12:40:18.052Z,2728.00
2023-03-18T12:41:18.023Z,2676.00
2023-03-18T12:42:18.039Z,2792.00